Fairbanks, AK

10:34 AM AKDT on August 29, 2016 (GMT -0800)
Fairbanks International | | Change Station

Elev 433 ft 64.80 °N, 147.88 °W | Updated 41 minutes ago

Scattered Clouds
Scattered Clouds
60 °F
Feels Like 60 °F
N
15
Wind Variable Wind from ENE
Gusts 23 mph

Today
High -- | Low -- °F
--% Chance of Precip.
Yesterday
High -- | Low -- °F
Precip. -- in
Pressure 30.27 in
Visibility 10.0 miles
Clouds Few 7000 ft
Few 15000 ft
Scattered Clouds 22000 ft
Dew Point 38 °F
Humidity 44%
Rainfall 0.00 in
Snow Depth Not available.
6:24 AM 9:17 PM
Waning Crescent, 7% visible
METAR PAFA 291753Z 06013G20KT 10SM FEW070 FEW150 SCT220 16/03 A3026 RMK AO2 SLP250 ACSL SE T01560033 10156 20083 51006
Pressure 30.27 in
Visibility 10.0 miles
Clouds Few 7000 ft
Few 15000 ft
Scattered Clouds 22000 ft
Dew Point 38 °F
Humidity 44%
Rainfall 0.00 in
Snow Depth Not available.
6:24 AM 9:17 PM
Waning Crescent, 7% visible
METAR PAFA 291753Z 06013G20KT 10SM FEW070 FEW150 SCT220 16/03 A3026 RMK AO2 SLP250 ACSL SE T01560033 10156 20083 51006

10-Day Weather Forecast

Almanac

Astronomy

Aug. 29, 2016 Rise Set
Actual Time
Civil Twilight
Nautical Twilight
Astronomical Twilight
Moon
Length of Visible Light
Length of Day
Tomorrow will be .
, % of the Moon is Illuminated

Today's Extremes

State Highs State Lows

Community

WunderPhotos

Upload Photos

1,935,685 photos uploaded!

WunderBlog® & News

Nearby

Air Quality

  Air Quality AQ Index Pollutant
Not available.

Snow Depth

Station Depth Elevation

Earthquake Activity

City Distance Mag. Time & Date
Minimum magnitude displayed is 2.5.

Coastal Water Temperatures

Place Temperature

Stations

Nearby Weather Stations

Station Location Temp. Windchill Dew Point Humidity Wind Precip. Elev Updated Type
                   

Watches & Warnings

There are currently no watches in effect.